Ville De Bordeaux — FZCE — position and weather

sailwx.info

Track history (hours):
 
Tides and Currents Weather Stations Pressure Air Temp Water Temp Dewpoint Dewpoint Depression Visibility Wind Speed Wind Dir Waves Ship Positions

Ville De Bordeaux

Last reported at 2017-Feb-25 21:30 UTC. Time now 2017-Feb-26 05:58 UTC.
Position N 38°12' W 009°58'.

Length 150 m; beam 24 m.

Type: Ship. MMSI: 228084000.

Date/timePositionNaut miles runAvg speedWind from/ knotsBaromVisibWave heightAir tempDewpointWater temp
2017-Feb-25 21:30N 38°12' W 009°58'1716.0
2017-Feb-25 20:28N 38°29' W 010°03'1415.7
2017-Feb-25 19:33N 38°43' W 010°07'1615.7
2017-Feb-25 18:33N 38°58' W 010°07'1716.3
2017-Feb-25 17:31N 39°15' W 010°06'55412.9
2017-Feb-23 22:33N 46°53' W 002°59'1413.6
2017-Feb-23 21:32N 46°60' W 002°42'1414.5
2017-Feb-23 20:33N 47°07' W 002°23'1313.2
2017-Feb-23 19:33N 47°17' W 002°11'1 0.1
2017-Feb-23 10:18N 47°17' W 002°10'0 0.0
2017-Feb-23 09:33N 47°17' W 002°10'0 0.0
2017-Feb-23 08:30N 47°17' W 002°10'0 0.0
2017-Feb-23 07:33N 47°17' W 002°10'0 0.0
2017-Feb-23 06:33N 47°17' W 002°10'0 0.0
2017-Feb-23 05:33N 47°17' W 002°10'0 0.1
2017-Feb-23 04:33N 47°17' W 002°10'1212.6
2017-Feb-23 03:33N 47°07' W 002°22'1412.6
2017-Feb-23 02:27N 46°59' W 002°38'1314.5
2017-Feb-23 01:33N 46°52' W 002°54'1515.3
2017-Feb-23 00:33N 46°43' W 003°12'1615.5
2017-Feb-22 23:33N 46°34' W 003°30'1715.8
2017-Feb-22 22:29N 46°24' W 003°50'49414.0
2017-Feb-21 11:15N 39°27' W 009°51'1115.8
2017-Feb-21 10:33N 39°15' W 009°51'1615.7
2017-Feb-21 09:33N 38°60' W 009°52'1615.6
2017-Feb-21 08:33N 38°44' W 009°52'1515.6
2017-Feb-21 07:33N 38°29' W 009°48'1615.5
2017-Feb-21 06:33N 38°14' W 009°44'238 7.9
2017-Feb-20 00:18N 35°57' W 005°39'810.3
2017-Feb-19 23:33N 35°55' W 005°30'2 1.6
2017-Feb-19 22:33N 35°53' W 005°30'0 0.0
2017-Feb-19 21:30N 35°53' W 005°30'0 0.0
2017-Feb-19 20:21N 35°53' W 005°30'0 0.0
2017-Feb-19 19:27N 35°53' W 005°30'0 0.0
2017-Feb-19 18:33N 35°53' W 005°30'0 0.0
2017-Feb-19 17:33N 35°53' W 005°30'1 0.5
2017-Feb-19 16:32N 35°54' W 005°30'6 6.1
2017-Feb-19 15:34N 35°59' W 005°27'1110.9
2017-Feb-19 14:33N 36°01' W 005°13'68514.8
2017-Feb-17 16:23N 38°45' E 008°44'  
Track history (hours):
 
Tides and Currents Weather Stations Pressure Air Temp Water Temp Dewpoint Dewpoint Depression Visibility Wind Speed Wind Dir Waves Ship Positions

Ville De Bordeaux

Last reported at 2017-Feb-25 21:30 UTC. Time now 2017-Feb-26 05:58 UTC.
Position N 38°12' W 009°58'.

Length 150 m; beam 24 m.

Type: Ship. MMSI: 228084000.

Date/timePositionNaut miles runAvg speedWind from/ knotsBaromVisibWave heightAir tempDewpointWater temp
2017-Feb-25 21:30N 38°12' W 009°58'1716.0
2017-Feb-25 20:28N 38°29' W 010°03'1415.7
2017-Feb-25 19:33N 38°43' W 010°07'1615.7
2017-Feb-25 18:33N 38°58' W 010°07'1716.3
2017-Feb-25 17:31N 39°15' W 010°06'55412.9
2017-Feb-23 22:33N 46°53' W 002°59'1413.6
2017-Feb-23 21:32N 46°60' W 002°42'1414.5
2017-Feb-23 20:33N 47°07' W 002°23'1313.2
2017-Feb-23 19:33N 47°17' W 002°11'1 0.1
2017-Feb-23 10:18N 47°17' W 002°10'0 0.0
2017-Feb-23 09:33N 47°17' W 002°10'0 0.0
2017-Feb-23 08:30N 47°17' W 002°10'0 0.0
2017-Feb-23 07:33N 47°17' W 002°10'0 0.0
2017-Feb-23 06:33N 47°17' W 002°10'0 0.0
2017-Feb-23 05:33N 47°17' W 002°10'0 0.1
2017-Feb-23 04:33N 47°17' W 002°10'1212.6
2017-Feb-23 03:33N 47°07' W 002°22'1412.6
2017-Feb-23 02:27N 46°59' W 002°38'1314.5
2017-Feb-23 01:33N 46°52' W 002°54'1515.3
2017-Feb-23 00:33N 46°43' W 003°12'1615.5
2017-Feb-22 23:33N 46°34' W 003°30'1715.8
2017-Feb-22 22:29N 46°24' W 003°50'49414.0
2017-Feb-21 11:15N 39°27' W 009°51'1115.8
2017-Feb-21 10:33N 39°15' W 009°51'1615.7
2017-Feb-21 09:33N 38°60' W 009°52'1615.6
2017-Feb-21 08:33N 38°44' W 009°52'1515.6
2017-Feb-21 07:33N 38°29' W 009°48'1615.5
2017-Feb-21 06:33N 38°14' W 009°44'238 7.9
2017-Feb-20 00:18N 35°57' W 005°39'810.3
2017-Feb-19 23:33N 35°55' W 005°30'2 1.6
2017-Feb-19 22:33N 35°53' W 005°30'0 0.0
2017-Feb-19 21:30N 35°53' W 005°30'0 0.0
2017-Feb-19 20:21N 35°53' W 005°30'0 0.0
2017-Feb-19 19:27N 35°53' W 005°30'0 0.0
2017-Feb-19 18:33N 35°53' W 005°30'0 0.0
2017-Feb-19 17:33N 35°53' W 005°30'1 0.5
2017-Feb-19 16:32N 35°54' W 005°30'6 6.1
2017-Feb-19 15:34N 35°59' W 005°27'1110.9
2017-Feb-19 14:33N 36°01' W 005°13'68514.8
2017-Feb-17 16:23N 38°45' E 008°44'  

Dump ship's entire track history